createdAt,value
2017-03-05T00:00:47.306Z,979.2
2017-03-05T00:01:58.006Z,979.17
2017-03-05T00:03:08.706Z,979.25
2017-03-05T00:04:19.038Z,979.27
2017-03-05T00:05:29.754Z,979.22
2017-03-05T00:06:40.486Z,979.25
2017-03-05T00:07:51.194Z,979.27
2017-03-05T00:09:01.899Z,979.28
2017-03-05T00:10:12.602Z,979.3
2017-03-05T00:11:22.909Z,979.26
2017-03-05T00:12:33.613Z,979.34
2017-03-05T00:13:44.317Z,979.35
2017-03-05T00:14:55.029Z,979.33
2017-03-05T00:16:05.753Z,979.33
2017-03-05T00:17:16.100Z,979.35
2017-03-05T00:18:26.827Z,979.29
2017-03-05T00:19:37.540Z,979.3
2017-03-05T00:20:48.240Z,979.33
2017-03-05T00:21:58.942Z,979.33
2017-03-05T00:23:09.639Z,979.39
2017-03-05T00:24:19.931Z,979.34
2017-03-05T00:25:30.638Z,979.33
2017-03-05T00:26:41.359Z,979.34
2017-03-05T00:27:52.074Z,979.34
2017-03-05T00:29:02.760Z,979.35
2017-03-05T00:30:13.053Z,979.35
2017-03-05T00:31:23.762Z,979.26
2017-03-05T00:32:34.463Z,979.29
2017-03-05T00:33:45.152Z,979.37
2017-03-05T00:34:55.858Z,979.29
2017-03-05T00:36:06.153Z,979.28
2017-03-05T00:37:16.458Z,979.26
2017-03-05T00:38:26.776Z,979.27
2017-03-05T00:39:37.483Z,979.34
2017-03-05T00:40:48.198Z,979.35
2017-03-05T00:41:58.904Z,979.31
2017-03-05T00:43:09.217Z,979.31
2017-03-05T00:44:19.925Z,979.34
2017-03-05T00:45:30.619Z,979.32
2017-03-05T00:46:41.341Z,979.37
2017-03-05T00:47:52.034Z,979.42
2017-03-05T00:49:02.739Z,979.42
2017-03-05T00:50:13.443Z,979.34
2017-03-05T00:51:24.135Z,979.4
2017-03-05T00:52:34.475Z,979.39
2017-03-05T00:53:45.171Z,979.32
2017-03-05T00:54:55.868Z,979.29
2017-03-05T00:56:06.616Z,979.35
2017-03-05T00:57:17.315Z,979.36
2017-03-05T00:58:27.613Z,979.4
2017-03-05T00:59:38.303Z,979.29
2017-03-05T01:00:49.000Z,979.39
2017-03-05T01:01:59.705Z,979.4
2017-03-05T01:03:10.003Z,979.39
2017-03-05T01:04:20.317Z,979.39
2017-03-05T01:05:31.023Z,979.24
2017-03-05T01:06:41.316Z,979.31
2017-03-05T01:07:52.022Z,979.27
2017-03-05T01:09:02.726Z,979.29
2017-03-05T01:10:13.419Z,979.34
2017-03-05T01:11:24.361Z,979.33
2017-03-05T01:12:35.056Z,979.29
2017-03-05T01:13:45.761Z,979.34
2017-03-05T01:14:56.484Z,979.36
2017-03-05T01:16:07.200Z,979.32
2017-03-05T01:17:17.515Z,979.33
2017-03-05T01:18:27.812Z,979.38
2017-03-05T01:19:38.567Z,979.39
2017-03-05T01:20:49.280Z,979.4
2017-03-05T01:21:59.997Z,979.41
2017-03-05T01:23:10.713Z,979.45
2017-03-05T01:24:21.423Z,979.42
2017-03-05T01:25:31.761Z,979.42
2017-03-05T01:26:42.489Z,979.38
2017-03-05T01:27:53.196Z,979.38
2017-03-05T01:29:03.916Z,979.38
2017-03-05T01:30:14.220Z,979.44
2017-03-05T01:31:24.552Z,979.43
2017-03-05T01:32:35.264Z,979.46
2017-03-05T01:33:45.957Z,979.43
2017-03-05T01:34:56.674Z,979.43
2017-03-05T01:36:07.391Z,979.46
2017-03-05T01:37:17.704Z,979.49
2017-03-05T01:38:28.406Z,979.51
2017-03-05T01:39:39.092Z,979.5
2017-03-05T01:40:49.796Z,979.52
2017-03-05T01:42:00.504Z,979.5
2017-03-05T01:43:10.805Z,979.5
2017-03-05T01:44:21.513Z,979.53
2017-03-05T01:45:32.202Z,979.49
2017-03-05T01:46:44.943Z,979.48
2017-03-05T01:47:55.696Z,979.53
2017-03-05T01:49:05.989Z,979.51
2017-03-05T01:50:16.682Z,979.56
2017-03-05T01:51:27.394Z,979.52
2017-03-05T01:52:38.096Z,979.56
2017-03-05T01:53:48.788Z,979.55
2017-03-05T01:54:59.504Z,979.53
2017-03-05T01:56:10.223Z,979.54
2017-03-05T01:57:20.527Z,979.51
2017-03-05T01:58:31.241Z,979.53
2017-03-05T01:59:41.926Z,979.47
2017-03-05T02:00:52.634Z,979.44
2017-03-05T02:02:02.949Z,979.42
2017-03-05T02:03:13.644Z,979.47
2017-03-05T02:04:24.350Z,979.49
2017-03-05T02:05:34.664Z,979.49
2017-03-05T02:06:45.363Z,979.43
2017-03-05T02:07:56.076Z,979.46
2017-03-05T02:09:06.811Z,979.41
2017-03-05T02:10:17.477Z,979.44
2017-03-05T02:11:27.786Z,979.45
2017-03-05T02:12:38.480Z,979.48
2017-03-05T02:13:49.177Z,979.45
2017-03-05T02:14:59.889Z,979.51
2017-03-05T02:16:10.587Z,979.52
2017-03-05T02:17:21.292Z,979.52
2017-03-05T02:18:31.979Z,979.51
2017-03-05T02:19:42.680Z,979.55
2017-03-05T02:20:53.404Z,979.52
2017-03-05T02:22:04.112Z,979.55
2017-03-05T02:23:14.808Z,979.58
2017-03-05T02:24:25.115Z,979.56
2017-03-05T02:25:35.830Z,979.53
2017-03-05T02:26:46.523Z,979.54
2017-03-05T02:27:57.234Z,979.53
2017-03-05T02:29:07.951Z,979.57
2017-03-05T02:30:18.271Z,979.5
2017-03-05T02:31:28.964Z,979.56
2017-03-05T02:32:39.692Z,979.53
2017-03-05T02:33:50.399Z,979.5
2017-03-05T02:35:01.101Z,979.48
2017-03-05T02:36:11.414Z,979.54
2017-03-05T02:37:22.121Z,979.53
2017-03-05T02:38:32.831Z,979.45
2017-03-05T02:39:43.519Z,979.52
2017-03-05T02:40:54.221Z,979.52
2017-03-05T02:42:04.914Z,979.53
2017-03-05T02:43:15.635Z,979.54
2017-03-05T02:44:26.336Z,979.55
2017-03-05T02:45:36.639Z,979.55
2017-03-05T02:46:47.351Z,979.62
2017-03-05T02:47:58.060Z,979.52
2017-03-05T02:49:08.754Z,979.62
2017-03-05T02:50:19.454Z,979.53
2017-03-05T02:51:30.145Z,979.58
2017-03-05T02:52:40.851Z,979.59
2017-03-05T02:53:51.541Z,979.6
2017-03-05T02:55:02.249Z,979.63
2017-03-05T02:56:12.964Z,979.59
2017-03-05T02:57:23.651Z,979.6
2017-03-05T02:58:34.333Z,979.6
2017-03-05T02:59:45.035Z,979.6
2017-03-05T03:00:55.732Z,979.61
2017-03-05T03:02:06.436Z,979.62
2017-03-05T03:03:17.459Z,979.62
2017-03-05T03:04:28.150Z,979.64
2017-03-05T03:05:38.447Z,979.62
2017-03-05T03:06:49.181Z,979.63
2017-03-05T03:07:59.890Z,979.59
2017-03-05T03:09:10.585Z,979.58
2017-03-05T03:10:20.885Z,979.6
2017-03-05T03:11:31.616Z,979.57
2017-03-05T03:12:42.319Z,979.6
2017-03-05T03:13:53.022Z,979.57
2017-03-05T03:16:18.012Z,979.65
2017-03-05T03:17:28.305Z,979.56
2017-03-05T03:18:38.619Z,979.56
2017-03-05T03:19:49.321Z,979.57
2017-03-05T03:21:00.378Z,979.59
2017-03-05T03:22:11.095Z,979.63
2017-03-05T03:23:21.811Z,979.6
2017-03-05T03:24:32.522Z,979.56
2017-03-05T03:25:43.225Z,979.57
2017-03-05T03:26:53.925Z,979.56
2017-03-05T03:28:04.635Z,979.61
2017-03-05T03:29:15.338Z,979.64
2017-03-05T03:30:26.043Z,979.62
2017-03-05T03:31:36.767Z,979.62
2017-03-05T03:32:47.473Z,979.66
2017-03-05T03:33:58.179Z,979.58
2017-03-05T03:35:08.888Z,979.63
2017-03-05T03:36:19.198Z,979.61
2017-03-05T03:37:29.895Z,979.63
2017-03-05T03:38:40.602Z,979.64
2017-03-05T03:39:51.307Z,979.64
2017-03-05T03:41:02.016Z,979.64
2017-03-05T03:42:12.741Z,979.67
2017-03-05T03:43:23.450Z,979.65
2017-03-05T03:44:34.162Z,979.69
2017-03-05T03:45:44.871Z,979.69
2017-03-05T03:46:55.563Z,979.67
2017-03-05T03:48:06.280Z,979.74
2017-03-05T03:49:16.982Z,979.67
2017-03-05T03:50:27.684Z,979.72
2017-03-05T03:51:38.387Z,979.74
2017-03-05T03:52:49.078Z,979.75
2017-03-05T03:53:59.780Z,979.75
2017-03-05T03:55:10.513Z,979.74
2017-03-05T03:56:21.235Z,979.78
2017-03-05T03:57:30.741Z,979.81
2017-03-05T03:58:41.437Z,979.81
2017-03-05T03:59:52.154Z,979.83
2017-03-05T04:01:02.839Z,979.84
2017-03-05T04:02:13.546Z,979.85
2017-03-05T04:03:24.245Z,979.87
2017-03-05T04:04:34.973Z,979.88
2017-03-05T04:05:45.699Z,979.96
2017-03-05T04:06:56.402Z,979.86
2017-03-05T04:08:07.102Z,979.94
2017-03-05T04:09:17.416Z,979.95
2017-03-05T04:10:28.120Z,979.91
2017-03-05T04:11:38.827Z,979.92
2017-03-05T04:12:49.532Z,979.97
2017-03-05T04:14:00.239Z,979.95
2017-03-05T04:15:10.537Z,979.92
2017-03-05T04:16:21.244Z,979.94
2017-03-05T04:17:31.971Z,979.99
2017-03-05T04:18:42.677Z,979.98
2017-03-05T04:19:53.379Z,980.01
2017-03-05T04:21:04.064Z,979.97
2017-03-05T04:22:14.357Z,979.95
2017-03-05T04:23:25.079Z,980
2017-03-05T04:24:35.804Z,979.95
2017-03-05T04:25:46.504Z,979.93
2017-03-05T04:26:57.217Z,979.98
2017-03-05T04:28:07.940Z,979.95
2017-03-05T04:29:18.269Z,980.01
2017-03-05T04:30:28.592Z,980
2017-03-05T04:31:39.311Z,979.93
2017-03-05T04:32:50.028Z,979.96
2017-03-05T04:34:00.731Z,979.98
2017-03-05T04:35:11.431Z,980.02
2017-03-05T04:36:22.129Z,980
2017-03-05T04:37:32.825Z,980.05
2017-03-05T04:38:43.569Z,980.05
2017-03-05T04:39:54.265Z,980.05
2017-03-05T04:41:04.967Z,980.03
2017-03-05T04:42:15.666Z,980.05
2017-03-05T04:43:25.969Z,979.99
2017-03-05T04:44:36.665Z,980.04
2017-03-05T04:45:46.974Z,980.05
2017-03-05T04:46:57.666Z,980.06
2017-03-05T04:48:08.368Z,980.09
2017-03-05T04:49:19.068Z,980.06
2017-03-05T04:50:29.365Z,980.18
2017-03-05T04:51:40.066Z,980.14
2017-03-05T04:52:50.770Z,980.12
2017-03-05T04:54:01.068Z,980.2
2017-03-05T04:55:11.768Z,980.19
2017-03-05T04:56:22.459Z,980.2
2017-03-05T04:57:33.163Z,980.17
2017-03-05T04:58:43.866Z,980.23
2017-03-05T04:59:54.570Z,980.24
2017-03-05T05:01:05.286Z,980.21
2017-03-05T05:02:15.982Z,980.26
2017-03-05T05:03:26.291Z,980.22
2017-03-05T05:04:36.997Z,980.22
2017-03-05T05:05:47.701Z,980.27
2017-03-05T05:06:58.424Z,980.25
2017-03-05T05:08:09.134Z,980.29
2017-03-05T05:09:19.837Z,980.27
2017-03-05T05:10:29.358Z,980.24
2017-03-05T05:11:40.053Z,980.33
2017-03-05T05:12:50.758Z,980.32
2017-03-05T05:14:01.465Z,980.31
2017-03-05T05:15:12.171Z,980.32
2017-03-05T05:16:22.875Z,980.26
2017-03-05T05:17:33.571Z,980.32
2017-03-05T05:18:44.269Z,980.33
2017-03-05T05:19:54.975Z,980.29
2017-03-05T05:21:05.674Z,980.3
2017-03-05T05:22:16.405Z,980.27
2017-03-05T05:23:27.098Z,980.29
2017-03-05T05:24:37.403Z,980.25
2017-03-05T05:25:48.101Z,980.23
2017-03-05T05:26:58.801Z,980.26
2017-03-05T05:28:09.495Z,980.21
2017-03-05T05:29:20.191Z,980.24
2017-03-05T05:30:30.525Z,980.27
2017-03-05T05:31:41.244Z,980.3
2017-03-05T05:32:51.981Z,980.32
2017-03-05T05:34:02.674Z,980.35
2017-03-05T05:35:13.390Z,980.33
2017-03-05T05:36:24.083Z,980.36
2017-03-05T05:37:34.781Z,980.41
2017-03-05T05:38:45.490Z,980.44
2017-03-05T05:39:56.239Z,980.44
2017-03-05T05:41:06.543Z,980.49
2017-03-05T05:42:17.245Z,980.46
2017-03-05T05:43:27.534Z,980.52
2017-03-05T05:44:38.231Z,980.49
2017-03-05T05:45:48.937Z,980.59
2017-03-05T05:46:59.648Z,980.52
2017-03-05T05:48:10.366Z,980.59
2017-03-05T05:49:21.115Z,980.52
2017-03-05T05:50:31.827Z,980.55
2017-03-05T05:51:42.532Z,980.55
2017-03-05T05:52:53.243Z,980.61
2017-03-05T05:54:03.947Z,980.63
2017-03-05T05:55:14.648Z,980.6
2017-03-05T05:56:25.340Z,980.68
2017-03-05T05:57:36.031Z,980.7
2017-03-05T05:58:46.735Z,980.65
2017-03-05T05:59:57.438Z,980.71
2017-03-05T06:01:07.753Z,980.72
2017-03-05T06:02:18.466Z,980.7
2017-03-05T06:03:29.155Z,980.75
2017-03-05T06:04:39.078Z,980.74
2017-03-05T06:05:49.782Z,980.75
2017-03-05T06:07:00.485Z,980.78
2017-03-05T06:08:11.187Z,980.71
2017-03-05T06:09:21.880Z,980.74
2017-03-05T06:10:32.184Z,980.72
2017-03-05T06:11:42.885Z,980.77
2017-03-05T06:12:53.589Z,980.77
2017-03-05T06:14:04.277Z,980.81
2017-03-05T06:15:14.986Z,980.86
2017-03-05T06:16:25.338Z,980.83
2017-03-05T06:17:36.061Z,980.89
2017-03-05T06:18:46.770Z,980.89
2017-03-05T06:19:57.473Z,980.89
2017-03-05T06:21:08.177Z,980.95
2017-03-05T06:22:18.874Z,981
2017-03-05T06:23:29.607Z,980.91
2017-03-05T06:24:40.326Z,981
2017-03-05T06:25:51.040Z,980.99
2017-03-05T06:27:01.748Z,981.03
2017-03-05T06:28:12.446Z,981.03
2017-03-05T06:29:22.765Z,981.04
2017-03-05T06:30:33.455Z,981.06
2017-03-05T06:31:44.162Z,981.05
2017-03-05T06:32:54.897Z,981.05
2017-03-05T06:34:05.598Z,981.06
2017-03-05T06:35:15.919Z,981.12
2017-03-05T06:36:26.644Z,981.14
2017-03-05T06:37:37.350Z,981.13
2017-03-05T06:38:48.052Z,981.16
2017-03-05T06:39:58.739Z,981.12
2017-03-05T06:41:09.447Z,981.11
2017-03-05T06:42:20.151Z,981.16
2017-03-05T06:43:30.447Z,981.13
2017-03-05T06:44:41.152Z,981.16
2017-03-05T06:45:51.851Z,981.19
2017-03-05T06:47:02.568Z,981.2
2017-03-05T06:48:13.289Z,981.2
2017-03-05T06:49:23.624Z,981.15
2017-03-05T06:50:34.342Z,981.14
2017-03-05T06:51:45.049Z,981.12
2017-03-05T06:52:55.751Z,981.15
2017-03-05T06:54:06.452Z,981.18
2017-03-05T06:55:17.162Z,981.11
2017-03-05T06:56:27.447Z,981.24
2017-03-05T06:57:38.164Z,981.29
2017-03-05T06:58:48.847Z,981.33
2017-03-05T06:59:59.541Z,981.4
2017-03-05T07:01:10.256Z,981.34
2017-03-05T07:02:20.961Z,981.37
2017-03-05T07:03:31.657Z,981.35
2017-03-05T07:04:42.351Z,981.41
2017-03-05T07:05:53.057Z,981.37
2017-03-05T07:07:03.762Z,981.42
2017-03-05T07:08:14.498Z,981.42
2017-03-05T07:09:25.207Z,981.42
2017-03-05T07:10:35.110Z,981.46
2017-03-05T07:11:45.797Z,981.45
2017-03-05T07:12:56.484Z,981.49
2017-03-05T07:14:07.206Z,981.45
2017-03-05T07:15:17.936Z,981.44
2017-03-05T07:16:28.635Z,981.39
2017-03-05T07:17:39.342Z,981.44
2017-03-05T07:18:50.043Z,981.41
2017-03-05T07:20:00.745Z,981.41
2017-03-05T07:21:10.643Z,981.39
2017-03-05T07:22:21.343Z,981.44
2017-03-05T07:23:32.055Z,981.5
2017-03-05T07:24:42.750Z,981.52
2017-03-05T07:25:53.447Z,981.54
2017-03-05T07:27:04.179Z,981.53
2017-03-05T07:28:14.880Z,981.47
2017-03-05T07:29:25.577Z,981.52
2017-03-05T07:30:36.281Z,981.5
2017-03-05T07:31:46.993Z,981.52
2017-03-05T07:32:57.703Z,981.48
2017-03-05T07:34:08.418Z,981.53
2017-03-05T07:35:19.112Z,981.51
2017-03-05T07:36:29.816Z,981.48
2017-03-05T07:37:40.515Z,981.5
2017-03-05T07:38:51.217Z,981.46
2017-03-05T07:40:01.924Z,981.51
2017-03-05T07:41:12.633Z,981.5
2017-03-05T07:42:22.961Z,981.48
2017-03-05T07:43:33.683Z,981.49
2017-03-05T07:44:44.394Z,981.53
2017-03-05T07:45:55.081Z,981.49
2017-03-05T07:47:05.419Z,981.54
2017-03-05T07:48:15.729Z,981.51
2017-03-05T07:49:26.440Z,981.58
2017-03-05T07:50:36.732Z,981.58
2017-03-05T07:51:47.434Z,981.56
2017-03-05T07:52:58.126Z,981.55
2017-03-05T07:54:08.835Z,981.53
2017-03-05T07:55:19.543Z,981.49
2017-03-05T07:56:30.229Z,981.53
2017-03-05T07:57:40.939Z,981.56
2017-03-05T07:58:51.642Z,981.59
2017-03-05T08:00:02.345Z,981.61
2017-03-05T08:01:13.053Z,981.61
2017-03-05T08:02:22.978Z,981.59
2017-03-05T08:03:33.673Z,981.61
2017-03-05T08:04:44.373Z,981.65
2017-03-05T08:05:55.082Z,981.64
2017-03-05T08:07:05.772Z,981.7
2017-03-05T08:08:16.487Z,981.62
2017-03-05T08:09:27.198Z,981.62
2017-03-05T08:10:37.899Z,981.68
2017-03-05T08:11:48.589Z,981.73
2017-03-05T08:12:59.300Z,981.73
2017-03-05T08:14:10.001Z,981.78
2017-03-05T08:15:20.711Z,981.78
2017-03-05T08:16:31.425Z,981.75
2017-03-05T08:17:42.143Z,981.78
2017-03-05T08:18:52.835Z,981.79
2017-03-05T08:20:03.548Z,981.71
2017-03-05T08:21:14.243Z,981.71
2017-03-05T08:22:24.952Z,981.72
2017-03-05T08:23:35.660Z,981.66
2017-03-05T08:24:46.348Z,981.64
2017-03-05T08:25:57.039Z,981.67
2017-03-05T08:27:07.759Z,981.64
2017-03-05T08:28:18.463Z,981.69
2017-03-05T08:29:28.754Z,981.74
2017-03-05T08:30:39.044Z,981.75
2017-03-05T08:31:49.741Z,981.71
2017-03-05T08:33:00.452Z,981.74
2017-03-05T08:34:11.145Z,981.65
2017-03-05T08:35:21.845Z,981.65
2017-03-05T08:36:32.556Z,981.68
2017-03-05T08:37:42.882Z,981.66
2017-03-05T08:38:53.575Z,981.73
2017-03-05T08:40:04.307Z,981.73
2017-03-05T08:41:15.011Z,981.69
2017-03-05T08:42:25.731Z,981.63
2017-03-05T08:43:36.468Z,981.64
2017-03-05T08:44:47.173Z,981.68
2017-03-05T08:45:57.871Z,981.65
2017-03-05T08:47:08.200Z,981.73
2017-03-05T08:48:18.899Z,981.71
2017-03-05T08:49:29.619Z,981.7
2017-03-05T08:50:40.335Z,981.7
2017-03-05T08:51:51.035Z,981.67
2017-03-05T08:53:01.752Z,981.68
2017-03-05T08:54:12.472Z,981.67
2017-03-05T08:55:23.196Z,981.65
2017-03-05T08:56:33.917Z,981.69
2017-03-05T08:57:44.619Z,981.64
2017-03-05T08:58:55.324Z,981.66
2017-03-05T09:00:06.028Z,981.69
2017-03-05T09:01:16.361Z,981.71
2017-03-05T09:02:27.077Z,981.67
2017-03-05T09:03:37.787Z,981.67
2017-03-05T09:04:48.512Z,981.69
2017-03-05T09:05:59.255Z,981.68
2017-03-05T09:07:09.973Z,981.71
2017-03-05T09:08:20.318Z,981.72
2017-03-05T09:09:30.622Z,981.68
2017-03-05T09:10:40.916Z,981.7
2017-03-05T09:11:51.240Z,981.66
2017-03-05T09:13:01.945Z,981.68
2017-03-05T09:14:12.268Z,981.71
2017-03-05T09:15:22.961Z,981.67
2017-03-05T09:16:33.272Z,981.72
2017-03-05T09:17:43.978Z,981.64
2017-03-05T09:18:54.686Z,981.69
2017-03-05T09:20:05.391Z,981.65
2017-03-05T09:21:16.092Z,981.61
2017-03-05T09:22:26.803Z,981.65
2017-03-05T09:23:37.540Z,981.64
2017-03-05T09:24:48.235Z,981.63
2017-03-05T09:25:58.961Z,981.65
2017-03-05T09:27:09.662Z,981.61
2017-03-05T09:28:20.358Z,981.69
2017-03-05T09:29:31.077Z,981.69
2017-03-05T09:30:41.773Z,981.7
2017-03-05T09:31:52.481Z,981.64
2017-03-05T09:33:03.178Z,981.7
2017-03-05T09:34:13.906Z,981.7
2017-03-05T09:35:24.221Z,981.68
2017-03-05T09:36:34.936Z,981.65
2017-03-05T09:37:45.658Z,981.74
2017-03-05T09:38:56.370Z,981.71
2017-03-05T09:40:07.080Z,981.71
2017-03-05T09:41:17.774Z,981.77
2017-03-05T09:42:28.091Z,981.8
2017-03-05T09:43:38.814Z,981.75
2017-03-05T09:44:49.137Z,981.78
2017-03-05T09:45:59.845Z,981.81
2017-03-05T09:47:10.545Z,981.85
2017-03-05T09:48:21.247Z,981.86
2017-03-05T09:49:31.958Z,981.87
2017-03-05T09:50:42.258Z,981.87
2017-03-05T09:51:52.570Z,981.9
2017-03-05T09:53:03.270Z,981.87
2017-03-05T09:54:13.985Z,981.88
2017-03-05T09:55:24.288Z,981.89
2017-03-05T09:56:34.993Z,981.91
2017-03-05T09:57:45.699Z,981.96
2017-03-05T09:58:56.411Z,981.95
2017-03-05T10:00:07.121Z,981.9
2017-03-05T10:01:17.833Z,981.94
2017-03-05T10:02:28.540Z,981.93
2017-03-05T10:03:39.275Z,981.96
2017-03-05T10:04:49.576Z,981.95
2017-03-05T10:05:59.885Z,981.94
2017-03-05T10:07:10.254Z,981.92
2017-03-05T10:08:20.974Z,981.92
2017-03-05T10:09:31.277Z,981.89
2017-03-05T10:10:41.598Z,981.9
2017-03-05T10:11:52.303Z,981.96
2017-03-05T10:13:03.037Z,981.96
2017-03-05T10:14:13.340Z,981.94
2017-03-05T10:15:24.054Z,981.91
2017-03-05T10:16:34.761Z,981.9
2017-03-05T10:17:45.477Z,981.91
2017-03-05T10:18:56.195Z,981.88
2017-03-05T10:20:06.898Z,981.87
2017-03-05T10:21:17.611Z,981.87
2017-03-05T10:22:27.915Z,981.87
2017-03-05T10:23:38.627Z,981.9
2017-03-05T10:24:49.338Z,981.88
2017-03-05T10:26:00.048Z,981.91
2017-03-05T10:27:10.369Z,981.93
2017-03-05T10:28:21.074Z,981.93
2017-03-05T10:29:31.778Z,981.94
2017-03-05T10:30:42.493Z,981.98
2017-03-05T10:31:53.189Z,981.94
2017-03-05T10:33:03.929Z,981.99
2017-03-05T10:34:14.655Z,981.96
2017-03-05T10:35:25.360Z,981.9
2017-03-05T10:36:36.080Z,982
2017-03-05T10:37:46.782Z,981.94
2017-03-05T10:38:57.503Z,981.95
2017-03-05T10:40:08.208Z,981.96
2017-03-05T10:41:18.507Z,981.91
2017-03-05T10:42:29.224Z,981.9
2017-03-05T10:43:39.537Z,981.92
2017-03-05T10:44:50.248Z,981.94
2017-03-05T10:46:00.960Z,981.92
2017-03-05T10:47:11.655Z,981.96
2017-03-05T10:48:22.359Z,981.96
2017-03-05T10:49:33.054Z,981.94
2017-03-05T10:50:43.761Z,981.95
2017-03-05T10:51:54.474Z,981.97
2017-03-05T10:53:05.187Z,981.91
2017-03-05T10:54:15.919Z,981.89
2017-03-05T10:55:26.646Z,981.91
2017-03-05T10:56:36.974Z,981.88
2017-03-05T10:57:47.276Z,981.88
2017-03-05T10:58:57.983Z,981.92
2017-03-05T11:00:08.705Z,981.92
2017-03-05T11:01:19.014Z,981.91
2017-03-05T11:02:29.322Z,981.93
2017-03-05T11:03:39.641Z,981.89
2017-03-05T11:04:50.348Z,981.88
2017-03-05T11:06:01.072Z,981.88
2017-03-05T11:07:11.776Z,981.9
2017-03-05T11:08:22.479Z,981.85
2017-03-05T11:09:32.781Z,981.87
2017-03-05T11:10:43.509Z,981.85
2017-03-05T11:11:54.226Z,981.83
2017-03-05T11:13:04.966Z,981.85
2017-03-05T11:14:15.676Z,981.9
2017-03-05T11:15:26.392Z,981.91
2017-03-05T11:16:37.104Z,981.94
2017-03-05T11:17:47.416Z,981.87
2017-03-05T11:18:58.135Z,981.89
2017-03-05T11:20:08.851Z,981.87
2017-03-05T11:21:19.577Z,981.89
2017-03-05T11:22:30.288Z,981.9
2017-03-05T11:23:40.988Z,981.91
2017-03-05T11:24:51.747Z,981.94
2017-03-05T11:26:02.462Z,981.86
2017-03-05T11:27:12.783Z,981.86
2017-03-05T11:28:23.087Z,981.81
2017-03-05T11:29:33.390Z,981.81
2017-03-05T11:30:44.103Z,981.81
2017-03-05T11:31:54.824Z,981.83
2017-03-05T11:33:05.138Z,981.87
2017-03-05T11:34:15.456Z,981.88
2017-03-05T11:35:26.162Z,981.89
2017-03-05T11:36:36.855Z,981.83
2017-03-05T11:37:47.574Z,981.93
2017-03-05T11:38:58.310Z,981.82
2017-03-05T11:40:09.030Z,981.89
2017-03-05T11:41:19.378Z,981.82
2017-03-05T11:42:29.676Z,981.86
2017-03-05T11:43:40.007Z,981.85
2017-03-05T11:44:50.734Z,981.83
2017-03-05T11:46:01.457Z,981.87
2017-03-05T11:47:11.785Z,981.9
2017-03-05T11:48:22.519Z,981.95
2017-03-05T11:49:33.258Z,981.97
2017-03-05T11:50:43.992Z,981.88
2017-03-05T11:51:54.735Z,981.97
2017-03-05T11:53:05.461Z,981.86
2017-03-05T11:54:15.815Z,981.92
2017-03-05T11:55:26.534Z,982.01
2017-03-05T11:56:37.240Z,981.86
2017-03-05T11:57:47.952Z,981.9
2017-03-05T11:58:58.685Z,981.96
2017-03-05T12:00:09.401Z,981.87
2017-03-05T12:01:20.130Z,981.89
2017-03-05T12:02:30.848Z,981.94
2017-03-05T12:03:41.621Z,981.89
2017-03-05T12:04:51.935Z,981.89
2017-03-05T12:06:02.660Z,981.84
2017-03-05T12:07:12.978Z,981.79
2017-03-05T12:08:23.701Z,981.83
2017-03-05T12:09:34.027Z,981.85
2017-03-05T12:10:44.753Z,981.8
2017-03-05T12:11:55.495Z,981.83
2017-03-05T12:13:06.230Z,981.84
2017-03-05T12:14:16.972Z,981.79
2017-03-05T12:15:27.692Z,981.77
2017-03-05T12:16:38.016Z,981.79
2017-03-05T12:17:48.737Z,981.78
2017-03-05T12:18:59.447Z,981.83
2017-03-05T12:20:10.164Z,981.88
2017-03-05T12:21:20.865Z,981.9
2017-03-05T12:22:31.577Z,981.93
2017-03-05T12:23:42.316Z,981.95
2017-03-05T12:24:53.024Z,981.92
2017-03-05T12:26:03.748Z,981.88
2017-03-05T12:27:14.453Z,981.87
2017-03-05T12:28:25.178Z,981.91
2017-03-05T12:29:35.505Z,981.82
2017-03-05T12:30:46.208Z,981.88
2017-03-05T12:31:56.923Z,981.8
2017-03-05T12:33:07.648Z,981.84
2017-03-05T12:34:18.360Z,981.83
2017-03-05T12:35:29.089Z,981.86
2017-03-05T12:36:39.818Z,981.83
2017-03-05T12:37:50.531Z,981.8
2017-03-05T12:39:01.251Z,981.81
2017-03-05T12:40:12.012Z,981.76
2017-03-05T12:41:22.360Z,981.76
2017-03-05T12:42:33.093Z,981.75
2017-03-05T12:43:43.796Z,981.77
2017-03-05T12:44:54.121Z,981.73
2017-03-05T12:46:04.834Z,981.72
2017-03-05T12:47:15.548Z,981.67
2017-03-05T12:48:26.267Z,981.67
2017-03-05T12:49:36.998Z,981.63
2017-03-05T12:50:47.714Z,981.61
2017-03-05T12:51:58.428Z,981.61
2017-03-05T12:53:08.752Z,981.58
2017-03-05T12:54:19.472Z,981.56
2017-03-05T12:55:30.196Z,981.56
2017-03-05T12:56:40.907Z,981.62
2017-03-05T12:57:51.620Z,981.62
2017-03-05T12:59:02.336Z,981.59
2017-03-05T13:00:13.053Z,981.56
2017-03-05T13:01:23.792Z,981.55
2017-03-05T13:02:34.095Z,981.59
2017-03-05T13:03:44.826Z,981.55
2017-03-05T13:04:55.560Z,981.6
2017-03-05T13:06:05.871Z,981.52
2017-03-05T13:07:16.588Z,981.52
2017-03-05T13:08:27.317Z,981.5
2017-03-05T13:09:38.039Z,981.55
2017-03-05T13:10:48.778Z,981.52
2017-03-05T13:11:59.473Z,981.49
2017-03-05T13:13:10.181Z,981.5
2017-03-05T13:14:20.485Z,981.51
2017-03-05T13:15:30.803Z,981.45
2017-03-05T13:16:41.129Z,981.44
2017-03-05T13:17:51.840Z,981.44
2017-03-05T13:19:02.560Z,981.42
2017-03-05T13:20:12.479Z,981.42
2017-03-05T13:21:23.179Z,981.43
2017-03-05T13:22:33.894Z,981.43
2017-03-05T13:23:44.628Z,981.4
2017-03-05T13:24:54.553Z,981.4
2017-03-05T13:26:05.273Z,981.33
2017-03-05T13:27:15.192Z,981.34
2017-03-05T13:28:25.907Z,981.32
2017-03-05T13:29:36.613Z,981.34
2017-03-05T13:30:47.327Z,981.33
2017-03-05T13:31:58.038Z,981.3
2017-03-05T13:33:08.342Z,981.35
2017-03-05T13:34:19.059Z,981.34
2017-03-05T13:35:29.798Z,981.36
2017-03-05T13:36:40.523Z,981.34
2017-03-05T13:37:51.249Z,981.34
2017-03-05T13:39:02.052Z,981.3
2017-03-05T13:40:12.773Z,981.31
2017-03-05T13:41:23.095Z,981.3
2017-03-05T13:42:33.398Z,981.28
2017-03-05T13:43:44.129Z,981.31
2017-03-05T13:44:54.850Z,981.26
2017-03-05T13:46:05.555Z,981.31
2017-03-05T13:47:16.271Z,981.34
2017-03-05T13:48:26.980Z,981.3
2017-03-05T13:49:37.690Z,981.29
2017-03-05T13:50:48.394Z,981.2
2017-03-05T13:51:59.109Z,981.23
2017-03-05T13:53:09.436Z,981.21
2017-03-05T13:54:20.151Z,981.18
2017-03-05T13:55:30.866Z,981.23
2017-03-05T13:56:41.583Z,981.24
2017-03-05T13:57:52.291Z,981.15
2017-03-05T13:59:03.003Z,981.18
2017-03-05T14:00:13.324Z,981.19
2017-03-05T14:01:24.039Z,981.21
2017-03-05T14:02:34.774Z,981.21
2017-03-05T14:03:45.070Z,981.22
2017-03-05T14:04:55.773Z,981.28
2017-03-05T14:06:06.501Z,981.31
2017-03-05T14:07:17.222Z,981.28
2017-03-05T14:08:27.914Z,981.3
2017-03-05T14:09:38.630Z,981.29
2017-03-05T14:10:49.352Z,981.26
2017-03-05T14:11:59.652Z,981.3
2017-03-05T14:13:10.351Z,981.3
2017-03-05T14:14:20.654Z,981.26
2017-03-05T14:15:31.369Z,981.24
2017-03-05T14:16:41.702Z,981.26
2017-03-05T14:17:52.411Z,981.32
2017-03-05T14:19:03.134Z,981.26
2017-03-05T14:20:13.873Z,981.27
2017-03-05T14:21:24.180Z,981.26
2017-03-05T14:22:34.885Z,981.27
2017-03-05T14:23:45.587Z,981.26
2017-03-05T14:24:56.301Z,981.23
2017-03-05T14:26:07.062Z,981.28
2017-03-05T14:27:17.771Z,981.22
2017-03-05T14:28:28.485Z,981.24
2017-03-05T14:29:39.189Z,981.16
2017-03-05T14:30:49.907Z,981.17
2017-03-05T14:32:00.623Z,981.22
2017-03-05T14:33:11.336Z,981.17
2017-03-05T14:34:21.661Z,981.22
2017-03-05T14:35:32.023Z,981.24
2017-03-05T14:36:42.732Z,981.16
2017-03-05T14:37:53.443Z,981.17
2017-03-05T14:39:04.159Z,981.15
2017-03-05T14:40:14.864Z,981.17
2017-03-05T14:41:25.194Z,981.2
2017-03-05T14:42:35.506Z,981.19
2017-03-05T14:43:46.233Z,981.14
2017-03-05T14:44:56.937Z,981.2
2017-03-05T14:46:07.655Z,981.15